sensor_id;sensor_type;location;lat;lon;timestamp;pressure;altitude;pressure_sealevel;temperature;humidity
23164;BME280;31429;42.674;23.350;2022-10-16T00:00:26;95400.13;;;9.69;100.00
23164;BME280;31429;42.674;23.350;2022-10-16T00:01:29;95407.69;;;9.74;100.00
23164;BME280;31429;42.674;23.350;2022-10-16T00:02:30;95407.03;;;9.66;100.00
23164;BME280;31429;42.674;23.350;2022-10-16T00:03:31;95396.22;;;9.55;100.00
23164;BME280;31429;42.674;23.350;2022-10-16T00:04:31;95415.34;;;9.74;100.00
23164;BME280;31429;42.674;23.350;2022-10-16T00:05:33;95406.09;;;9.68;100.00
23164;BME280;31429;42.674;23.350;2022-10-16T00:06:34;95415.81;;;9.54;100.00
23164;BME280;31429;42.674;23.350;2022-10-16T00:07:34;95363.25;;;9.10;100.00
23164;BME280;31429;42.674;23.350;2022-10-16T00:08:36;95404.63;;;9.23;100.00
23164;BME280;31429;42.674;23.350;2022-10-16T00:09:37;95424.94;;;9.28;100.00
23164;BME280;31429;42.674;23.350;2022-10-16T00:10:39;95392.38;;;9.00;100.00
23164;BME280;31429;42.674;23.350;2022-10-16T00:11:40;95415.84;;;9.14;100.00
23164;BME280;31429;42.674;23.350;2022-10-16T00:12:41;95371.34;;;8.91;100.00
23164;BME280;31429;42.674;23.350;2022-10-16T00:13:44;95402.38;;;9.09;100.00
23164;BME280;31429;42.674;23.350;2022-10-16T00:14:45;95416.53;;;9.22;100.00
23164;BME280;31429;42.674;23.350;2022-10-16T00:15:45;95389.56;;;9.12;100.00
23164;BME280;31429;42.674;23.350;2022-10-16T00:16:48;95403.56;;;9.33;100.00
23164;BME280;31429;42.674;23.350;2022-10-16T00:17:48;95419.34;;;9.49;100.00
23164;BME280;31429;42.674;23.350;2022-10-16T00:18:49;95413.38;;;9.48;100.00
23164;BME280;31429;42.674;23.350;2022-10-16T00:19:50;95419.53;;;9.41;100.00
23164;BME280;31429;42.674;23.350;2022-10-16T00:20:50;95422.25;;;9.34;100.00
23164;BME280;31429;42.674;23.350;2022-10-16T00:21:51;95399.81;;;9.11;100.00
23164;BME280;31429;42.674;23.350;2022-10-16T00:22:52;95407.47;;;9.11;100.00
23164;BME280;31429;42.674;23.350;2022-10-16T00:23:54;95423.56;;;9.11;100.00
23164;BME280;31429;42.674;23.350;2022-10-16T00:24:55;95416.28;;;8.95;100.00
23164;BME280;31429;42.674;23.350;2022-10-16T00:25:57;95428.13;;;8.97;100.00
23164;BME280;31429;42.674;23.350;2022-10-16T00:26:57;95336.69;;;8.42;100.00
23164;BME280;31429;42.674;23.350;2022-10-16T00:27:58;95389.34;;;8.83;100.00
23164;BME280;31429;42.674;23.350;2022-10-16T00:28:59;95412.94;;;8.93;100.00
23164;BME280;31429;42.674;23.350;2022-10-16T00:30:00;95422.88;;;9.05;100.00
23164;BME280;31429;42.674;23.350;2022-10-16T00:31:03;95430.66;;;8.99;100.00
23164;BME280;31429;42.674;23.350;2022-10-16T00:32:05;95426.38;;;9.01;100.00
23164;BME280;31429;42.674;23.350;2022-10-16T00:33:05;95423.69;;;9.05;100.00
23164;BME280;31429;42.674;23.350;2022-10-16T00:34:06;95394.25;;;8.92;100.00
23164;BME280;31429;42.674;23.350;2022-10-16T00:35:07;95432.97;;;9.11;100.00
23164;BME280;31429;42.674;23.350;2022-10-16T00:36:10;95401.16;;;8.87;100.00
23164;BME280;31429;42.674;23.350;2022-10-16T00:37:11;95441.91;;;8.89;100.00
23164;BME280;31429;42.674;23.350;2022-10-16T00:38:12;95439.56;;;8.80;100.00
23164;BME280;31429;42.674;23.350;2022-10-16T00:39:12;95376.59;;;8.42;100.00
23164;BME280;31429;42.674;23.350;2022-10-16T00:40:13;95439.47;;;8.84;100.00
23164;BME280;31429;42.674;23.350;2022-10-16T00:41:16;95415.91;;;8.73;100.00
23164;BME280;31429;42.674;23.350;2022-10-16T00:42:18;95417.56;;;8.74;100.00
23164;BME280;31429;42.674;23.350;2022-10-16T00:43:35;95432.38;;;8.98;100.00
23164;BME280;31429;42.674;23.350;2022-10-16T00:44:46;95398.28;;;8.61;100.00
23164;BME280;31429;42.674;23.350;2022-10-16T00:45:46;95395.06;;;8.51;100.00
23164;BME280;31429;42.674;23.350;2022-10-16T00:46:47;95433.75;;;8.73;100.00
23164;BME280;31429;42.674;23.350;2022-10-16T00:47:52;95433.75;;;8.73;100.00
23164;BME280;31429;42.674;23.350;2022-10-16T00:48:57;95434.59;;;8.72;100.00
23164;BME280;31429;42.674;23.350;2022-10-16T00:50:04;95429.56;;;8.69;100.00
23164;BME280;31429;42.674;23.350;2022-10-16T00:51:07;95433.91;;;8.65;100.00
23164;BME280;31429;42.674;23.350;2022-10-16T00:52:09;95389.34;;;8.42;100.00
23164;BME280;31429;42.674;23.350;2022-10-16T00:53:10;95432.31;;;8.58;100.00
23164;BME280;31429;42.674;23.350;2022-10-16T00:54:15;95423.78;;;8.61;100.00
23164;BME280;31429;42.674;23.350;2022-10-16T00:55:17;95379.31;;;8.34;100.00
23164;BME280;31429;42.674;23.350;2022-10-16T00:56:19;95420.22;;;8.70;100.00
23164;BME280;31429;42.674;23.350;2022-10-16T00:57:19;95429.38;;;8.80;100.00
23164;BME280;31429;42.674;23.350;2022-10-16T00:58:21;95423.84;;;8.99;100.00
23164;BME280;31429;42.674;23.350;2022-10-16T00:59:24;95398.19;;;9.05;100.00
23164;BME280;31429;42.674;23.350;2022-10-16T01:00:26;95386.28;;;9.07;100.00
23164;BME280;31429;42.674;23.350;2022-10-16T01:01:28;95423.06;;;9.36;100.00
23164;BME280;31429;42.674;23.350;2022-10-16T01:02:28;95429.81;;;9.37;100.00
23164;BME280;31429;42.674;23.350;2022-10-16T01:03:32;95431.56;;;9.35;100.00
23164;BME280;31429;42.674;23.350;2022-10-16T01:04:35;95429.78;;;9.38;100.00
23164;BME280;31429;42.674;23.350;2022-10-16T01:05:39;95436.69;;;9.35;100.00
23164;BME280;31429;42.674;23.350;2022-10-16T01:06:51;95440.47;;;9.17;100.00
23164;BME280;31429;42.674;23.350;2022-10-16T01:07:59;95431.56;;;8.96;100.00
23164;BME280;31429;42.674;23.350;2022-10-16T01:09:13;95449.53;;;8.90;100.00
23164;BME280;31429;42.674;23.350;2022-10-16T01:10:23;95446.25;;;8.84;100.00
23164;BME280;31429;42.674;23.350;2022-10-16T01:11:32;95447.09;;;8.84;100.00
23164;BME280;31429;42.674;23.350;2022-10-16T01:12:40;95442.47;;;9.03;100.00
23164;BME280;31429;42.674;23.350;2022-10-16T01:13:46;95443.06;;;9.14;100.00
23164;BME280;31429;42.674;23.350;2022-10-16T01:14:53;95441.88;;;9.30;100.00
23164;BME280;31429;42.674;23.350;2022-10-16T01:15:59;95442.72;;;9.31;100.00
23164;BME280;31429;42.674;23.350;2022-10-16T01:17:04;95438.44;;;9.33;100.00
23164;BME280;31429;42.674;23.350;2022-10-16T01:18:09;95436.81;;;9.29;100.00
23164;BME280;31429;42.674;23.350;2022-10-16T01:19:16;95430.78;;;9.33;100.00
23164;BME280;31429;42.674;23.350;2022-10-16T01:20:26;95412.94;;;9.31;100.00
23164;BME280;31429;42.674;23.350;2022-10-16T01:21:30;95422.06;;;9.41;100.00
23164;BME280;31429;42.674;23.350;2022-10-16T01:22:39;95407.88;;;9.30;100.00
23164;BME280;31429;42.674;23.350;2022-10-16T01:23:51;95427.13;;;9.44;100.00
23164;BME280;31429;42.674;23.350;2022-10-16T01:25:00;95421.63;;;9.22;100.00
23164;BME280;31429;42.674;23.350;2022-10-16T01:26:14;95427.22;;;9.01;100.00
23164;BME280;31429;42.674;23.350;2022-10-16T01:27:21;95425.91;;;8.82;100.00
23164;BME280;31429;42.674;23.350;2022-10-16T01:28:25;95428.59;;;8.76;100.00
23164;BME280;31429;42.674;23.350;2022-10-16T01:29:30;95435.41;;;8.74;100.00
23164;BME280;31429;42.674;23.350;2022-10-16T01:30:35;95429.59;;;8.68;100.00
23164;BME280;31429;42.674;23.350;2022-10-16T01:31:39;95429.66;;;8.64;100.00
23164;BME280;31429;42.674;23.350;2022-10-16T01:32:45;95405.41;;;8.45;100.00
23164;BME280;31429;42.674;23.350;2022-10-16T01:33:54;95427.84;;;8.71;100.00
23164;BME280;31429;42.674;23.350;2022-10-16T01:34:59;95421.56;;;8.87;100.00
23164;BME280;31429;42.674;23.350;2022-10-16T01:36:07;95419.56;;;9.01;100.00
23164;BME280;31429;42.674;23.350;2022-10-16T01:37:14;95420.94;;;9.16;100.00
23164;BME280;31429;42.674;23.350;2022-10-16T01:38:18;95415.72;;;9.20;100.00
23164;BME280;31429;42.674;23.350;2022-10-16T01:39:22;95408.00;;;9.25;100.00
23164;BME280;31429;42.674;23.350;2022-10-16T01:40:26;95418.19;;;9.25;100.00
23164;BME280;31429;42.674;23.350;2022-10-16T01:41:30;95412.25;;;9.23;100.00
23164;BME280;31429;42.674;23.350;2022-10-16T01:42:37;95376.28;;;8.98;100.00
23164;BME280;31429;42.674;23.350;2022-10-16T01:43:42;95416.69;;;9.16;100.00
23164;BME280;31429;42.674;23.350;2022-10-16T01:44:46;95421.69;;;9.19;100.00
23164;BME280;31429;42.674;23.350;2022-10-16T01:45:48;95422.66;;;9.14;100.00
23164;BME280;31429;42.674;23.350;2022-10-16T01:46:50;95408.50;;;9.01;100.00
23164;BME280;31429;42.674;23.350;2022-10-16T01:47:53;95422.00;;;9.06;100.00
23164;BME280;31429;42.674;23.350;2022-10-16T01:48:55;95429.72;;;9.03;100.00
23164;BME280;31429;42.674;23.350;2022-10-16T01:49:57;95399.88;;;8.66;100.00
23164;BME280;31429;42.674;23.350;2022-10-16T01:51:03;95392.91;;;8.75;100.00
23164;BME280;31429;42.674;23.350;2022-10-16T01:52:08;95423.78;;;9.02;100.00
23164;BME280;31429;42.674;23.350;2022-10-16T01:53:12;95424.59;;;9.04;100.00
23164;BME280;31429;42.674;23.350;2022-10-16T01:54:16;95430.44;;;9.09;100.00
23164;BME280;31429;42.674;23.350;2022-10-16T01:55:21;95423.69;;;9.07;100.00
23164;BME280;31429;42.674;23.350;2022-10-16T01:56:24;95437.34;;;9.03;100.00
23164;BME280;31429;42.674;23.350;2022-10-16T01:57:26;95439.00;;;9.07;100.00
23164;BME280;31429;42.674;23.350;2022-10-16T01:58:33;95429.03;;;8.96;100.00
23164;BME280;31429;42.674;23.350;2022-10-16T01:59:38;95410.50;;;8.88;100.00
23164;BME280;31429;42.674;23.350;2022-10-16T02:00:43;95418.16;;;8.88;100.00
23164;BME280;31429;42.674;23.350;2022-10-16T02:01:47;95443.47;;;8.96;100.00
23164;BME280;31429;42.674;23.350;2022-10-16T02:02:53;95445.25;;;8.92;100.00
23164;BME280;31429;42.674;23.350;2022-10-16T02:03:57;95447.78;;;8.92;100.00
23164;BME280;31429;42.674;23.350;2022-10-16T02:05:04;95447.06;;;8.86;100.00
23164;BME280;31429;42.674;23.350;2022-10-16T02:06:06;95448.75;;;8.88;100.00
23164;BME280;31429;42.674;23.350;2022-10-16T02:07:07;95442.91;;;8.82;100.00
23164;BME280;31429;42.674;23.350;2022-10-16T02:08:08;95415.41;;;8.54;100.00
23164;BME280;31429;42.674;23.350;2022-10-16T02:09:09;95451.41;;;8.82;100.00
23164;BME280;31429;42.674;23.350;2022-10-16T02:10:10;95446.31;;;8.82;100.00
23164;BME280;31429;42.674;23.350;2022-10-16T02:11:11;95418.66;;;8.62;100.00
23164;BME280;31429;42.674;23.350;2022-10-16T02:12:15;95459.00;;;8.84;100.00
23164;BME280;31429;42.674;23.350;2022-10-16T02:13:21;95448.75;;;8.88;100.00
23164;BME280;31429;42.674;23.350;2022-10-16T02:14:26;95453.84;;;8.87;100.00
23164;BME280;31429;42.674;23.350;2022-10-16T02:15:27;95458.16;;;8.83;100.00
23164;BME280;31429;42.674;23.350;2022-10-16T02:16:33;95457.47;;;8.77;100.00
23164;BME280;31429;42.674;23.350;2022-10-16T02:17:34;95403.78;;;8.41;100.00
23164;BME280;31429;42.674;23.350;2022-10-16T02:18:35;95460.03;;;8.75;100.00
23164;BME280;31429;42.674;23.350;2022-10-16T02:19:36;95459.25;;;8.72;100.00
23164;BME280;31429;42.674;23.350;2022-10-16T02:20:42;95460.88;;;8.76;100.00
23164;BME280;31429;42.674;23.350;2022-10-16T02:21:51;95466.75;;;8.79;100.00
23164;BME280;31429;42.674;23.350;2022-10-16T02:22:55;95450.06;;;8.63;100.00
23164;BME280;31429;42.674;23.350;2022-10-16T02:24:01;95460.94;;;8.73;100.00
23164;BME280;31429;42.674;23.350;2022-10-16T02:25:06;95460.88;;;8.76;100.00
23164;BME280;31429;42.674;23.350;2022-10-16T02:26:12;95460.78;;;8.80;100.00
23164;BME280;31429;42.674;23.350;2022-10-16T02:27:18;95452.25;;;8.81;100.00
23164;BME280;31429;42.674;23.350;2022-10-16T02:28:25;95464.09;;;8.85;100.00
23164;BME280;31429;42.674;23.350;2022-10-16T02:29:30;95462.41;;;8.84;100.00
23164;BME280;31429;42.674;23.350;2022-10-16T02:30:34;95432.22;;;8.63;100.00
23164;BME280;31429;42.674;23.350;2022-10-16T02:31:41;95442.34;;;8.66;100.00
23164;BME280;31429;42.674;23.350;2022-10-16T02:32:46;95466.66;;;8.84;100.00
23164;BME280;31429;42.674;23.350;2022-10-16T02:33:48;95463.94;;;8.91;100.00
23164;BME280;31429;42.674;23.350;2022-10-16T02:34:51;95465.75;;;8.86;100.00
23164;BME280;31429;42.674;23.350;2022-10-16T02:35:53;95464.22;;;8.79;100.00
23164;BME280;31429;42.674;23.350;2022-10-16T02:36:55;95464.09;;;8.85;100.00
23164;BME280;31429;42.674;23.350;2022-10-16T02:37:57;95465.00;;;8.81;100.00
23164;BME280;31429;42.674;23.350;2022-10-16T02:38:59;95467.47;;;8.86;100.00
23164;BME280;31429;42.674;23.350;2022-10-16T02:40:05;95448.31;;;8.66;100.00
23164;BME280;31429;42.674;23.350;2022-10-16T02:41:06;95467.69;;;8.75;100.00
23164;BME280;31429;42.674;23.350;2022-10-16T02:42:09;95463.53;;;8.70;100.00
23164;BME280;31429;42.674;23.350;2022-10-16T02:43:10;95429.94;;;8.49;100.00
23164;BME280;31429;42.674;23.350;2022-10-16T02:44:11;95461.78;;;8.72;100.00
23164;BME280;31429;42.674;23.350;2022-10-16T02:45:13;95455.00;;;8.72;100.00
23164;BME280;31429;42.674;23.350;2022-10-16T02:46:14;95468.63;;;8.70;100.00
23164;BME280;31429;42.674;23.350;2022-10-16T02:47:15;95416.63;;;8.35;100.00
23164;BME280;31429;42.674;23.350;2022-10-16T02:48:16;95466.25;;;8.60;100.00
23164;BME280;31429;42.674;23.350;2022-10-16T02:49:16;95445.19;;;8.52;100.00
23164;BME280;31429;42.674;23.350;2022-10-16T02:50:18;95466.16;;;8.66;100.00
23164;BME280;31429;42.674;23.350;2022-10-16T02:51:19;95465.34;;;8.64;100.00
23164;BME280;31429;42.674;23.350;2022-10-16T02:52:19;95468.75;;;8.65;100.00
23164;BME280;31429;42.674;23.350;2022-10-16T02:53:20;95468.69;;;8.66;100.00
23164;BME280;31429;42.674;23.350;2022-10-16T02:54:21;95467.09;;;8.61;100.00
23164;BME280;31429;42.674;23.350;2022-10-16T02:55:21;95481.50;;;8.63;100.00
23164;BME280;31429;42.674;23.350;2022-10-16T02:56:22;95475.53;;;8.63;100.00
23164;BME280;31429;42.674;23.350;2022-10-16T02:57:23;95445.59;;;8.31;100.00
23164;BME280;31429;42.674;23.350;2022-10-16T02:58:23;95479.16;;;8.53;100.00
23164;BME280;31429;42.674;23.350;2022-10-16T02:59:24;95476.59;;;8.53;100.00
23164;BME280;31429;42.674;23.350;2022-10-16T03:00:26;95488.50;;;8.54;100.00
23164;BME280;31429;42.674;23.350;2022-10-16T03:01:27;95451.59;;;8.26;100.00
23164;BME280;31429;42.674;23.350;2022-10-16T03:02:27;95484.44;;;8.42;100.00
23164;BME280;31429;42.674;23.350;2022-10-16T03:03:28;95484.56;;;8.35;100.00
23164;BME280;31429;42.674;23.350;2022-10-16T03:04:29;95487.06;;;8.38;100.00
23164;BME280;31429;42.674;23.350;2022-10-16T03:05:29;95486.94;;;8.45;100.00
23164;BME280;31429;42.674;23.350;2022-10-16T03:06:30;95487.75;;;8.47;100.00
23164;BME280;31429;42.674;23.350;2022-10-16T03:07:31;95482.75;;;8.43;100.00
23164;BME280;31429;42.674;23.350;2022-10-16T03:08:31;95482.13;;;8.29;100.00
23164;BME280;31429;42.674;23.350;2022-10-16T03:09:32;95483.75;;;8.33;100.00
23164;BME280;31429;42.674;23.350;2022-10-16T03:10:33;95483.81;;;8.31;100.00
23164;BME280;31429;42.674;23.350;2022-10-16T03:11:34;95486.34;;;8.30;100.00
23164;BME280;31429;42.674;23.350;2022-10-16T03:12:34;95478.78;;;8.25;100.00
23164;BME280;31429;42.674;23.350;2022-10-16T03:13:35;95436.97;;;7.86;100.00
23164;BME280;31429;42.674;23.350;2022-10-16T03:14:36;95485.81;;;8.11;100.00
23164;BME280;31429;42.674;23.350;2022-10-16T03:15:38;95496.84;;;8.10;100.00
23164;BME280;31429;42.674;23.350;2022-10-16T03:16:38;95487.84;;;7.91;100.00
23164;BME280;31429;42.674;23.350;2022-10-16T03:17:39;95491.19;;;7.93;100.00
23164;BME280;31429;42.674;23.350;2022-10-16T03:18:40;95493.53;;;8.05;100.00
23164;BME280;31429;42.674;23.350;2022-10-16T03:19:40;95490.91;;;8.09;100.00
23164;BME280;31429;42.674;23.350;2022-10-16T03:20:42;95469.72;;;8.07;100.00
23164;BME280;31429;42.674;23.350;2022-10-16T03:21:43;95484.75;;;8.23;100.00
23164;BME280;31429;42.674;23.350;2022-10-16T03:22:44;95468.84;;;8.12;100.00
23164;BME280;31429;42.674;23.350;2022-10-16T03:23:44;95463.66;;;8.16;100.00
23164;BME280;31429;42.674;23.350;2022-10-16T03:24:45;95474.59;;;8.21;100.00
23164;BME280;31429;42.674;23.350;2022-10-16T03:25:46;95478.88;;;8.18;100.00
23164;BME280;31429;42.674;23.350;2022-10-16T03:26:46;95489.91;;;8.20;100.00
23164;BME280;31429;42.674;23.350;2022-10-16T03:27:47;95494.00;;;8.30;100.00
23164;BME280;31429;42.674;23.350;2022-10-16T03:28:47;95493.25;;;8.22;100.00
23164;BME280;31429;42.674;23.350;2022-10-16T03:29:48;95492.34;;;8.27;100.00
23164;BME280;31429;42.674;23.350;2022-10-16T03:30:50;95494.81;;;8.32;100.00
23164;BME280;31429;42.674;23.350;2022-10-16T03:31:51;95497.28;;;8.36;100.00
23164;BME280;31429;42.674;23.350;2022-10-16T03:32:52;95454.25;;;8.20;100.00
23164;BME280;31429;42.674;23.350;2022-10-16T03:33:54;95490.59;;;8.31;100.00
23164;BME280;31429;42.674;23.350;2022-10-16T03:34:54;95494.09;;;8.22;100.00
23164;BME280;31429;42.674;23.350;2022-10-16T03:35:56;95497.75;;;8.07;100.00
23164;BME280;31429;42.674;23.350;2022-10-16T03:36:57;95501.28;;;7.99;100.00
23164;BME280;31429;42.674;23.350;2022-10-16T03:37:58;95497.25;;;7.84;100.00
23164;BME280;31429;42.674;23.350;2022-10-16T03:38:58;95499.03;;;7.79;100.00
23164;BME280;31429;42.674;23.350;2022-10-16T03:39:59;95506.84;;;7.67;100.00
23164;BME280;31429;42.674;23.350;2022-10-16T03:41:00;95507.81;;;7.60;100.00
23164;BME280;31429;42.674;23.350;2022-10-16T03:42:00;95502.47;;;7.75;100.00
23164;BME280;31429;42.674;23.350;2022-10-16T03:43:01;95502.56;;;7.69;100.00
23164;BME280;31429;42.674;23.350;2022-10-16T03:44:02;95492.31;;;7.75;100.00
23164;BME280;31429;42.674;23.350;2022-10-16T03:45:03;95500.63;;;7.86;100.00
23164;BME280;31429;42.674;23.350;2022-10-16T03:46:05;95502.41;;;7.81;100.00
23164;BME280;31429;42.674;23.350;2022-10-16T03:47:06;95495.47;;;7.89;100.00
23164;BME280;31429;42.674;23.350;2022-10-16T03:48:06;95498.19;;;7.80;100.00
23164;BME280;31429;42.674;23.350;2022-10-16T03:49:07;95494.94;;;7.69;100.00
23164;BME280;31429;42.674;23.350;2022-10-16T03:50:08;95491.75;;;7.57;100.00
23164;BME280;31429;42.674;23.350;2022-10-16T03:51:09;95489.22;;;7.57;100.00
23164;BME280;31429;42.674;23.350;2022-10-16T03:52:10;95499.50;;;7.49;100.00
23164;BME280;31429;42.674;23.350;2022-10-16T03:53:10;95491.06;;;7.44;100.00
23164;BME280;31429;42.674;23.350;2022-10-16T03:54:11;95487.72;;;7.43;100.00
23164;BME280;31429;42.674;23.350;2022-10-16T03:55:12;95489.41;;;7.43;100.00
23164;BME280;31429;42.674;23.350;2022-10-16T03:56:13;95476.66;;;7.46;100.00
23164;BME280;31429;42.674;23.350;2022-10-16T03:57:14;95493.38;;;7.61;100.00
23164;BME280;31429;42.674;23.350;2022-10-16T03:58:14;95480.72;;;7.58;100.00
23164;BME280;31429;42.674;23.350;2022-10-16T03:59:15;95488.34;;;7.58;100.00
23164;BME280;31429;42.674;23.350;2022-10-16T04:00:16;95487.25;;;7.72;100.00
23164;BME280;31429;42.674;23.350;2022-10-16T04:01:18;95481.06;;;7.90;100.00
23164;BME280;31429;42.674;23.350;2022-10-16T04:02:19;95484.41;;;7.93;100.00
23164;BME280;31429;42.674;23.350;2022-10-16T04:03:20;95486.16;;;7.90;100.00
23164;BME280;31429;42.674;23.350;2022-10-16T04:04:21;95487.59;;;8.04;100.00
23164;BME280;31429;42.674;23.350;2022-10-16T04:05:22;95485.78;;;8.13;100.00
23164;BME280;31429;42.674;23.350;2022-10-16T04:06:22;95460.41;;;8.08;100.00
23164;BME280;31429;42.674;23.350;2022-10-16T04:07:23;95479.72;;;8.18;100.00
23164;BME280;31429;42.674;23.350;2022-10-16T04:08:24;95478.88;;;8.18;100.00
23164;BME280;31429;42.674;23.350;2022-10-16T04:09:24;95452.06;;;8.00;100.00
23164;BME280;31429;42.674;23.350;2022-10-16T04:10:25;95452.94;;;7.97;100.00
23164;BME280;31429;42.674;23.350;2022-10-16T04:11:26;95489.16;;;8.13;100.00
23164;BME280;31429;42.674;23.350;2022-10-16T04:12:27;95448.03;;;7.85;100.00
23164;BME280;31429;42.674;23.350;2022-10-16T04:13:27;95483.31;;;8.06;100.00
23164;BME280;31429;42.674;23.350;2022-10-16T04:14:28;95491.94;;;7.99;100.00
23164;BME280;31429;42.674;23.350;2022-10-16T04:15:29;95484.31;;;7.99;100.00
23164;BME280;31429;42.674;23.350;2022-10-16T04:16:31;95495.34;;;7.98;100.00
23164;BME280;31429;42.674;23.350;2022-10-16T04:17:32;95484.34;;;7.96;100.00
23164;BME280;31429;42.674;23.350;2022-10-16T04:18:32;95486.84;;;7.98;100.00
23164;BME280;31429;42.674;23.350;2022-10-16T04:19:33;95492.84;;;7.95;100.00
23164;BME280;31429;42.674;23.350;2022-10-16T04:20:34;95496.38;;;7.87;100.00
23164;BME280;31429;42.674;23.350;2022-10-16T04:21:34;95463.63;;;7.64;100.00
23164;BME280;31429;42.674;23.350;2022-10-16T04:22:35;95485.66;;;7.67;100.00
23164;BME280;31429;42.674;23.350;2022-10-16T04:23:35;95494.81;;;7.80;100.00
23164;BME280;31429;42.674;23.350;2022-10-16T04:24:36;95493.03;;;7.83;100.00
23164;BME280;31429;42.674;23.350;2022-10-16T04:25:37;95468.50;;;7.78;100.00
23164;BME280;31429;42.674;23.350;2022-10-16T04:26:38;95498.06;;;7.88;100.00
23164;BME280;31429;42.674;23.350;2022-10-16T04:27:38;95497.34;;;7.80;100.00
23164;BME280;31429;42.674;23.350;2022-10-16T04:28:39;95494.03;;;7.73;100.00
23164;BME280;31429;42.674;23.350;2022-10-16T04:29:40;95495.88;;;7.65;100.00
23164;BME280;31429;42.674;23.350;2022-10-16T04:30:41;95493.56;;;7.48;100.00
23164;BME280;31429;42.674;23.350;2022-10-16T04:31:43;95455.91;;;7.14;100.00
23164;BME280;31429;42.674;23.350;2022-10-16T04:32:47;95495.34;;;7.43;100.00
23164;BME280;31429;42.674;23.350;2022-10-16T04:33:48;95501.16;;;7.50;100.00
23164;BME280;31429;42.674;23.350;2022-10-16T04:34:49;95500.41;;;7.45;100.00
23164;BME280;31429;42.674;23.350;2022-10-16T04:35:56;95510.78;;;7.28;100.00
23164;BME280;31429;42.674;23.350;2022-10-16T04:36:56;95502.47;;;7.16;100.00
23164;BME280;31429;42.674;23.350;2022-10-16T04:37:57;95511.91;;;7.08;100.00
23164;BME280;31429;42.674;23.350;2022-10-16T04:38:58;95512.84;;;7.01;100.00
23164;BME280;31429;42.674;23.350;2022-10-16T04:39:58;95507.91;;;6.88;100.00
23164;BME280;31429;42.674;23.350;2022-10-16T04:40:59;95513.91;;;6.81;100.00
23164;BME280;31429;42.674;23.350;2022-10-16T04:42:00;95437.19;;;6.51;100.00
23164;BME280;31429;42.674;23.350;2022-10-16T04:43:01;95477.25;;;7.01;100.00
23164;BME280;31429;42.674;23.350;2022-10-16T04:44:01;95487.47;;;6.98;100.00
23164;BME280;31429;42.674;23.350;2022-10-16T04:45:03;95490.78;;;7.01;100.00
23164;BME280;31429;42.674;23.350;2022-10-16T04:46:04;95512.78;;;7.05;100.00
23164;BME280;31429;42.674;23.350;2022-10-16T04:47:06;95480.06;;;6.81;100.00
23164;BME280;31429;42.674;23.350;2022-10-16T04:48:07;95519.63;;;6.99;100.00
23164;BME280;31429;42.674;23.350;2022-10-16T04:49:08;95511.22;;;6.93;100.00
23164;BME280;31429;42.674;23.350;2022-10-16T04:50:08;95518.09;;;6.85;100.00
23164;BME280;31429;42.674;23.350;2022-10-16T04:51:09;95515.47;;;6.93;100.00
23164;BME280;31429;42.674;23.350;2022-10-16T04:52:11;95502.75;;;6.93;100.00
23164;BME280;31429;42.674;23.350;2022-10-16T04:53:11;95526.31;;;7.09;100.00
23164;BME280;31429;42.674;23.350;2022-10-16T04:54:12;95518.53;;;7.21;100.00
23164;BME280;31429;42.674;23.350;2022-10-16T04:55:13;95520.28;;;7.16;100.00
23164;BME280;31429;42.674;23.350;2022-10-16T04:56:14;95521.75;;;7.35;100.00
23164;BME280;31429;42.674;23.350;2022-10-16T04:57:15;95517.06;;;7.64;100.00
23164;BME280;31429;42.674;23.350;2022-10-16T04:58:16;95511.38;;;7.47;100.00
23164;BME280;31429;42.674;23.350;2022-10-16T04:59:18;95511.69;;;7.26;100.00
23164;BME280;31429;42.674;23.350;2022-10-16T05:00:19;95476.59;;;6.86;100.00
23164;BME280;31429;42.674;23.350;2022-10-16T05:01:19;95526.13;;;7.22;100.00
23164;BME280;31429;42.674;23.350;2022-10-16T05:02:21;95441.06;;;6.82;100.00
23164;BME280;31429;42.674;23.350;2022-10-16T05:03:22;95478.63;;;7.24;100.00
23164;BME280;31429;42.674;23.350;2022-10-16T05:04:23;95504.59;;;7.49;100.00
23164;BME280;31429;42.674;23.350;2022-10-16T05:05:24;95534.84;;;7.67;100.00
23164;BME280;31429;42.674;23.350;2022-10-16T05:06:25;95533.03;;;7.75;100.00
23164;BME280;31429;42.674;23.350;2022-10-16T05:07:25;95535.56;;;7.75;100.00
23164;BME280;31429;42.674;23.350;2022-10-16T05:08:26;95533.66;;;7.89;100.00
23164;BME280;31429;42.674;23.350;2022-10-16T05:09:27;95539.69;;;7.84;100.00
23164;BME280;31429;42.674;23.350;2022-10-16T05:10:27;95514.47;;;7.69;100.00
23164;BME280;31429;42.674;23.350;2022-10-16T05:11:28;95507.06;;;7.53;100.00
23164;BME280;31429;42.674;23.350;2022-10-16T05:12:29;95534.75;;;7.75;100.00
23164;BME280;31429;42.674;23.350;2022-10-16T05:13:29;95538.78;;;7.86;100.00
23164;BME280;31429;42.674;23.350;2022-10-16T05:14:30;95503.38;;;7.73;100.00
23164;BME280;31429;42.674;23.350;2022-10-16T05:15:31;95539.56;;;7.93;100.00
23164;BME280;31429;42.674;23.350;2022-10-16T05:16:32;95532.72;;;7.96;100.00
23164;BME280;31429;42.674;23.350;2022-10-16T05:17:34;95544.53;;;8.00;100.00
23164;BME280;31429;42.674;23.350;2022-10-16T05:18:34;95541.22;;;7.95;100.00
23164;BME280;31429;42.674;23.350;2022-10-16T05:19:35;95544.72;;;7.88;100.00
23164;BME280;31429;42.674;23.350;2022-10-16T05:20:36;95536.50;;;7.71;100.00
23164;BME280;31429;42.674;23.350;2022-10-16T05:21:36;95543.44;;;7.60;100.00
23164;BME280;31429;42.674;23.350;2022-10-16T05:22:37;95549.34;;;7.62;100.00
23164;BME280;31429;42.674;23.350;2022-10-16T05:23:38;95550.94;;;7.69;100.00
23164;BME280;31429;42.674;23.350;2022-10-16T05:24:38;95546.38;;;7.89;100.00
23164;BME280;31429;42.674;23.350;2022-10-16T05:25:39;95549.69;;;7.97;100.00